createdAt,value
2017-09-03T00:00:50.294Z,56.5
2017-09-03T00:01:52.697Z,56.6
2017-09-03T00:02:55.103Z,56.6
2017-09-03T00:03:57.512Z,56.7
2017-09-03T00:04:59.914Z,56.6
2017-09-03T00:06:03.004Z,56.6
2017-09-03T00:07:05.402Z,56.6
2017-09-03T00:08:07.804Z,56.6
2017-09-03T00:09:10.210Z,56.6
2017-09-03T00:10:12.613Z,56.6
2017-09-03T00:11:15.013Z,56.6
2017-09-03T00:12:17.757Z,56.6
2017-09-03T00:13:20.168Z,56.2
2017-09-03T00:14:22.561Z,56.6
2017-09-03T00:15:24.964Z,56.8
2017-09-03T00:16:27.363Z,56.6
2017-09-03T00:17:30.104Z,56.7
2017-09-03T00:18:32.509Z,56.8
2017-09-03T00:19:34.917Z,56.8
2017-09-03T00:20:37.324Z,56.8
2017-09-03T00:21:39.726Z,56.8
2017-09-03T00:22:42.133Z,56.8
2017-09-03T00:23:44.542Z,56.8
2017-09-03T00:24:46.942Z,56.5
2017-09-03T00:25:49.347Z,56.8
2017-09-03T00:26:51.748Z,56.8
2017-09-03T00:27:54.150Z,56.4
2017-09-03T00:28:56.561Z,56.8
2017-09-03T00:29:58.961Z,56.8
2017-09-03T00:31:01.701Z,56.8
2017-09-03T00:32:04.109Z,56.4
2017-09-03T00:33:06.509Z,56.8
2017-09-03T00:34:08.916Z,56.8
2017-09-03T00:35:11.322Z,56.9
2017-09-03T00:36:13.722Z,56.9
2017-09-03T00:37:16.127Z,56.8
2017-09-03T00:38:18.538Z,56.9
2017-09-03T00:39:20.936Z,56.9
2017-09-03T00:40:23.345Z,56.9
2017-09-03T00:41:25.753Z,56.5
2017-09-03T00:42:28.155Z,56.9
2017-09-03T00:43:30.556Z,56.9
2017-09-03T00:44:32.963Z,56.9
2017-09-03T00:45:35.361Z,56.6
2017-09-03T00:46:37.756Z,56.9
2017-09-03T00:47:40.163Z,56.9
2017-09-03T00:48:42.578Z,56.5
2017-09-03T00:49:44.974Z,56.5
2017-09-03T00:50:47.379Z,56.7
2017-09-03T00:51:49.783Z,56.4
2017-09-03T00:52:52.185Z,56.5
2017-09-03T00:53:54.588Z,56.6
2017-09-03T00:54:56.991Z,56.5
2017-09-03T00:55:59.379Z,56.4
2017-09-03T00:57:02.128Z,56.4
2017-09-03T00:58:04.534Z,56.5
2017-09-03T00:59:06.934Z,56.5
2017-09-03T01:00:09.678Z,56.4
2017-09-03T01:01:12.072Z,56.3
2017-09-03T01:02:14.467Z,56.6
2017-09-03T01:03:16.885Z,56.6
2017-09-03T01:04:19.287Z,56.5
2017-09-03T01:05:21.693Z,56.7
2017-09-03T01:06:24.097Z,56.4
2017-09-03T01:07:26.499Z,56.6
2017-09-03T01:08:28.904Z,56.4
2017-09-03T01:09:31.313Z,56.5
2017-09-03T01:10:33.711Z,56.4
2017-09-03T01:11:36.114Z,56.4
2017-09-03T01:12:38.524Z,56.4
2017-09-03T01:13:40.942Z,56.5
2017-09-03T01:14:43.335Z,56.6
2017-09-03T01:15:45.741Z,56.5
2017-09-03T01:16:48.149Z,56.6
2017-09-03T01:17:50.884Z,56.5
2017-09-03T01:18:53.284Z,56.6
2017-09-03T01:19:55.690Z,56.5
2017-09-03T01:20:58.082Z,56.6
2017-09-03T01:22:00.502Z,56.6
2017-09-03T01:23:02.903Z,56.6
2017-09-03T01:24:05.301Z,56.6
2017-09-03T01:25:07.705Z,56.5
2017-09-03T01:26:10.112Z,56.6
2017-09-03T01:27:12.515Z,56.6
2017-09-03T01:28:14.928Z,56.7
2017-09-03T01:29:17.325Z,56.7
2017-09-03T01:30:19.731Z,56.6
2017-09-03T01:31:22.130Z,56.4
2017-09-03T01:32:25.210Z,56.5
2017-09-03T01:33:27.610Z,56.5
2017-09-03T01:34:30.024Z,56.5
2017-09-03T01:35:32.425Z,56.7
2017-09-03T01:36:34.838Z,56.6
2017-09-03T01:37:37.246Z,56.8
2017-09-03T01:38:39.986Z,56.7
2017-09-03T01:39:42.385Z,56.7
2017-09-03T01:40:44.792Z,56.8
2017-09-03T01:41:47.194Z,56.7
2017-09-03T01:42:49.594Z,56.7
2017-09-03T01:43:51.999Z,56.8
2017-09-03T01:44:54.399Z,56.8
2017-09-03T01:45:56.813Z,56.8
2017-09-03T01:46:59.216Z,56.8
2017-09-03T01:48:01.612Z,56.5
2017-09-03T01:49:04.012Z,56.7
2017-09-03T01:50:06.413Z,56.8
2017-09-03T01:51:08.821Z,56.8
2017-09-03T01:52:11.230Z,56.9
2017-09-03T01:53:13.627Z,57
2017-09-03T01:54:16.036Z,57
2017-09-03T01:55:18.449Z,56.9
2017-09-03T01:56:20.855Z,56.9
2017-09-03T01:57:23.261Z,56.9
2017-09-03T01:58:25.664Z,57
2017-09-03T01:59:28.060Z,57
2017-09-03T02:00:30.470Z,56.9
2017-09-03T02:01:32.879Z,56.8
2017-09-03T02:02:35.281Z,56.9
2017-09-03T02:03:37.684Z,56.8
2017-09-03T02:04:40.093Z,56.9
2017-09-03T02:05:42.498Z,56.9
2017-09-03T02:06:44.906Z,56.9
2017-09-03T02:07:47.302Z,56.8
2017-09-03T02:08:49.705Z,56.8
2017-09-03T02:09:52.123Z,56.8
2017-09-03T02:10:54.527Z,56.8
2017-09-03T02:11:57.267Z,56.9
2017-09-03T02:12:59.663Z,56.9
2017-09-03T02:14:02.077Z,56.9
2017-09-03T02:15:04.479Z,56.9
2017-09-03T02:16:06.878Z,56.9
2017-09-03T02:17:09.286Z,57
2017-09-03T02:18:11.685Z,57
2017-09-03T02:19:14.078Z,57
2017-09-03T02:20:16.494Z,56.8
2017-09-03T02:21:18.892Z,56.9
2017-09-03T02:22:21.301Z,56.9
2017-09-03T02:23:24.041Z,56.9
2017-09-03T02:24:26.439Z,56.9
2017-09-03T02:25:28.847Z,56.9
2017-09-03T02:26:31.261Z,56.9
2017-09-03T02:27:33.992Z,56.9
2017-09-03T02:28:36.421Z,57
2017-09-03T02:29:39.149Z,57
2017-09-03T02:30:41.546Z,57
2017-09-03T02:31:43.953Z,57.1
2017-09-03T02:32:46.363Z,57.1
2017-09-03T02:33:48.759Z,57.1
2017-09-03T02:34:51.514Z,57
2017-09-03T02:35:54.248Z,57.1
2017-09-03T02:36:56.648Z,57.2
2017-09-03T02:37:59.388Z,57.1
2017-09-03T02:39:01.793Z,57.1
2017-09-03T02:40:04.198Z,57.1
2017-09-03T02:41:06.611Z,57
2017-09-03T02:42:09.012Z,57.1
2017-09-03T02:43:11.414Z,57
2017-09-03T02:44:13.813Z,57.2
2017-09-03T02:45:16.230Z,57.1
2017-09-03T02:46:18.633Z,57.2
2017-09-03T02:47:21.040Z,57.2
2017-09-03T02:48:23.436Z,57.2
2017-09-03T02:49:26.531Z,57.2
2017-09-03T02:50:28.939Z,57.2
2017-09-03T02:51:31.349Z,57.2
2017-09-03T02:52:33.749Z,57.2
2017-09-03T02:53:36.157Z,57.2
2017-09-03T02:54:38.550Z,57.1
2017-09-03T02:55:40.959Z,57.2
2017-09-03T02:56:43.364Z,57.1
2017-09-03T02:57:45.762Z,57.1
2017-09-03T02:58:48.170Z,57.1
2017-09-03T02:59:50.586Z,57.2
2017-09-03T03:00:52.988Z,57.2
2017-09-03T03:01:55.392Z,57
2017-09-03T03:02:57.786Z,57.2
2017-09-03T03:04:00.190Z,57.2
2017-09-03T03:05:02.600Z,57.1
2017-09-03T03:06:05.005Z,57.1
2017-09-03T03:07:07.402Z,57.1
2017-09-03T03:08:09.811Z,57.2
2017-09-03T03:09:12.209Z,57.2
2017-09-03T03:10:14.623Z,57.2
2017-09-03T03:11:17.034Z,57.2
2017-09-03T03:12:19.432Z,57.2
2017-09-03T03:13:21.833Z,57.2
2017-09-03T03:14:24.237Z,57.2
2017-09-03T03:15:26.646Z,57.3
2017-09-03T03:16:29.398Z,57.4
2017-09-03T03:17:31.800Z,57.3
2017-09-03T03:18:34.204Z,57.4
2017-09-03T03:19:36.611Z,57.4
2017-09-03T03:20:39.015Z,57.5
2017-09-03T03:21:41.418Z,57.5
2017-09-03T03:22:43.815Z,57.5
2017-09-03T03:23:46.212Z,57.5
2017-09-03T03:24:48.614Z,57.5
2017-09-03T03:25:51.013Z,57.7
2017-09-03T03:26:53.419Z,57.8
2017-09-03T03:27:55.832Z,57.8
2017-09-03T03:28:58.239Z,57.9
2017-09-03T03:30:00.643Z,57.6
2017-09-03T03:31:03.055Z,57.6
2017-09-03T03:32:05.452Z,57.7
2017-09-03T03:33:07.859Z,57.6
2017-09-03T03:34:10.265Z,57.6
2017-09-03T03:35:12.663Z,57.9
2017-09-03T03:36:15.069Z,57.9
2017-09-03T03:37:17.469Z,57.6
2017-09-03T03:38:19.860Z,57.5
2017-09-03T03:39:22.268Z,57.9
2017-09-03T03:40:24.673Z,57.9
2017-09-03T03:41:27.074Z,57.4
2017-09-03T03:42:29.484Z,57.7
2017-09-03T03:43:31.878Z,57.8
2017-09-03T03:44:34.286Z,57.8
2017-09-03T03:45:36.689Z,57.8
2017-09-03T03:46:39.088Z,58
2017-09-03T03:47:41.497Z,58
2017-09-03T03:48:43.899Z,58
2017-09-03T03:49:46.295Z,58.1
2017-09-03T03:50:48.707Z,58.2
2017-09-03T03:51:51.098Z,58.1
2017-09-03T03:52:53.498Z,58
2017-09-03T03:53:55.904Z,58
2017-09-03T03:54:58.309Z,58
2017-09-03T03:56:00.710Z,58.1
2017-09-03T03:57:03.108Z,58.2
2017-09-03T03:58:05.504Z,58
2017-09-03T03:59:07.916Z,58.2
2017-09-03T04:00:10.316Z,58.2
2017-09-03T04:01:12.722Z,58.2
2017-09-03T04:02:15.123Z,58.2
2017-09-03T04:03:17.526Z,58.2
2017-09-03T04:04:19.925Z,58.3
2017-09-03T04:05:22.326Z,58.2
2017-09-03T04:06:24.720Z,58.2
2017-09-03T04:07:27.116Z,58.2
2017-09-03T04:08:29.518Z,58.2
2017-09-03T04:09:31.921Z,58.2
2017-09-03T04:10:34.324Z,58.1
2017-09-03T04:11:36.729Z,58.1
2017-09-03T04:12:39.127Z,58.1
2017-09-03T04:13:41.531Z,58.1
2017-09-03T04:14:44.271Z,58.1
2017-09-03T04:15:46.677Z,58.2
2017-09-03T04:16:49.085Z,58.1
2017-09-03T04:17:51.480Z,58.2
2017-09-03T04:18:53.887Z,58.2
2017-09-03T04:19:56.299Z,58.3
2017-09-03T04:20:58.699Z,58.2
2017-09-03T04:22:01.101Z,58.2
2017-09-03T04:23:03.501Z,58.3
2017-09-03T04:24:05.900Z,58.3
2017-09-03T04:25:08.318Z,58.1
2017-09-03T04:26:10.722Z,58.2
2017-09-03T04:27:13.119Z,58.3
2017-09-03T04:28:15.520Z,58.3
2017-09-03T04:29:17.923Z,58.2
2017-09-03T04:30:20.337Z,58.3
2017-09-03T04:31:23.078Z,58.2
2017-09-03T04:32:25.473Z,58.3
2017-09-03T04:33:27.878Z,58.3
2017-09-03T04:34:30.279Z,58.3
2017-09-03T04:35:32.682Z,58.3
2017-09-03T04:36:35.080Z,58.3
2017-09-03T04:37:37.815Z,58.2
2017-09-03T04:38:40.221Z,58.3
2017-09-03T04:39:42.634Z,58.2
2017-09-03T04:40:45.029Z,58.3
2017-09-03T04:41:47.423Z,58.1
2017-09-03T04:42:50.158Z,58.3
2017-09-03T04:43:52.558Z,58.3
2017-09-03T04:44:54.964Z,58.3
2017-09-03T04:45:57.370Z,58.2
2017-09-03T04:46:59.781Z,58.4
2017-09-03T04:48:02.182Z,58.4
2017-09-03T04:49:04.606Z,58.4
2017-09-03T04:50:07.032Z,58.3
2017-09-03T04:51:09.467Z,58.4
2017-09-03T04:52:11.887Z,58.4
2017-09-03T04:53:14.322Z,58.4
2017-09-03T04:54:16.747Z,58.4
2017-09-03T04:55:19.169Z,58.4
2017-09-03T04:56:21.603Z,58.4
2017-09-03T04:57:24.031Z,58.4
2017-09-03T04:58:26.471Z,58.4
2017-09-03T04:59:28.902Z,58.4
2017-09-03T05:00:31.677Z,58.5
2017-09-03T05:01:34.113Z,58.5
2017-09-03T05:02:36.548Z,58.4
2017-09-03T05:03:38.997Z,58.4
2017-09-03T05:04:41.428Z,58.4
2017-09-03T05:05:43.860Z,58.4
2017-09-03T05:06:46.294Z,58.4
2017-09-03T05:07:48.720Z,58.4
2017-09-03T05:08:51.145Z,58.4
2017-09-03T05:09:53.576Z,58.4
2017-09-03T05:10:56.006Z,58.3
2017-09-03T05:11:58.423Z,58.3
2017-09-03T05:13:00.860Z,58.3
2017-09-03T05:14:03.293Z,58.4
2017-09-03T05:15:05.722Z,58.4
2017-09-03T05:16:08.168Z,58.4
2017-09-03T05:17:10.588Z,58.4
2017-09-03T05:18:13.352Z,58.4
2017-09-03T05:19:15.786Z,58.4
2017-09-03T05:20:18.211Z,58.4
2017-09-03T05:21:20.641Z,58.4
2017-09-03T05:22:23.077Z,58.4
2017-09-03T05:23:25.882Z,58.4
2017-09-03T05:24:28.305Z,58.4
2017-09-03T05:25:30.736Z,58.5
2017-09-03T05:26:33.167Z,58.5
2017-09-03T05:27:35.596Z,58.6
2017-09-03T05:28:38.019Z,58.7
2017-09-03T05:29:40.439Z,58.7
2017-09-03T05:30:42.881Z,58.7
2017-09-03T05:31:45.325Z,58.6
2017-09-03T05:32:47.746Z,58.5
2017-09-03T05:33:50.177Z,58.6
2017-09-03T05:34:52.973Z,58.5
2017-09-03T05:35:55.392Z,58.5
2017-09-03T05:36:57.824Z,58.6
2017-09-03T05:38:00.254Z,58.6
2017-09-03T05:39:02.678Z,58.6
2017-09-03T05:40:05.118Z,58.8
2017-09-03T05:41:07.537Z,58.8
2017-09-03T05:42:09.967Z,58.7
2017-09-03T05:43:12.402Z,58.8
2017-09-03T05:44:14.832Z,58.8
2017-09-03T05:45:17.257Z,58.8
2017-09-03T05:46:19.688Z,58.8
2017-09-03T05:47:22.103Z,58.9
2017-09-03T05:48:24.540Z,58.8
2017-09-03T05:49:26.970Z,58.8
2017-09-03T05:50:29.399Z,58.8
2017-09-03T05:51:31.821Z,58.8
2017-09-03T05:52:34.247Z,58.8
2017-09-03T05:53:36.660Z,58.8
2017-09-03T05:54:39.095Z,58.8
2017-09-03T05:55:41.849Z,58.8
2017-09-03T05:56:44.277Z,58.4
2017-09-03T05:57:46.713Z,58.7
2017-09-03T05:58:49.140Z,58.7
2017-09-03T05:59:51.579Z,58.6
2017-09-03T06:00:54.351Z,58.2
2017-09-03T06:01:57.113Z,58.4
2017-09-03T06:02:59.563Z,58.4
2017-09-03T06:04:01.982Z,58.2
2017-09-03T06:05:04.406Z,58.3
2017-09-03T06:06:06.839Z,58.7
2017-09-03T06:07:09.261Z,58.4
2017-09-03T06:08:11.687Z,58.3
2017-09-03T06:09:14.471Z,58.3
2017-09-03T06:10:17.258Z,58.3
2017-09-03T06:11:19.688Z,58.2
2017-09-03T06:12:22.105Z,58.2
2017-09-03T06:13:24.538Z,58.2
2017-09-03T06:14:26.979Z,58.2
2017-09-03T06:15:29.408Z,58.1
2017-09-03T06:16:31.838Z,58
2017-09-03T06:17:34.275Z,58.1
2017-09-03T06:18:36.681Z,58.1
2017-09-03T06:19:39.467Z,58.1
2017-09-03T06:20:41.897Z,58.1
2017-09-03T06:21:44.322Z,58.1
2017-09-03T06:22:46.760Z,58.1
2017-09-03T06:23:49.192Z,58.2
2017-09-03T06:24:51.637Z,58.1
2017-09-03T06:25:54.080Z,58.2
2017-09-03T06:26:56.511Z,58
2017-09-03T06:27:58.936Z,58
2017-09-03T06:29:01.386Z,58
2017-09-03T06:30:04.154Z,58.1
2017-09-03T06:31:06.589Z,58
2017-09-03T06:32:09.038Z,58.1
2017-09-03T06:33:11.471Z,58.2
2017-09-03T06:34:13.901Z,58.1
2017-09-03T06:35:16.700Z,58.1
2017-09-03T06:36:19.118Z,58.2
2017-09-03T06:37:21.554Z,58.2
2017-09-03T06:38:23.990Z,58.1
2017-09-03T06:39:26.421Z,58.2
2017-09-03T06:40:28.854Z,58.2
2017-09-03T06:41:31.293Z,58.2
2017-09-03T06:42:33.731Z,58.1
2017-09-03T06:43:36.176Z,58
2017-09-03T06:44:38.951Z,58.1
2017-09-03T06:45:41.390Z,58.1
2017-09-03T06:46:43.820Z,58.1
2017-09-03T06:47:46.254Z,58.2
2017-09-03T06:48:48.677Z,58.2
2017-09-03T06:49:51.103Z,58.2
2017-09-03T06:50:53.545Z,58.1
2017-09-03T06:51:55.975Z,58.2
2017-09-03T06:52:58.389Z,58.2
2017-09-03T06:54:00.833Z,58.2
2017-09-03T06:55:03.269Z,58.3
2017-09-03T06:56:06.027Z,58.2
2017-09-03T06:57:08.476Z,58.1
2017-09-03T06:58:10.907Z,58.2
2017-09-03T06:59:13.335Z,58.2
2017-09-03T07:00:15.768Z,58.1
2017-09-03T07:01:18.194Z,58.2
2017-09-03T07:02:20.629Z,58.2
2017-09-03T07:03:23.414Z,58.1
2017-09-03T07:04:25.853Z,58
2017-09-03T07:05:28.293Z,58
2017-09-03T07:06:30.735Z,58
2017-09-03T07:07:33.161Z,57.9
2017-09-03T07:08:35.596Z,58
2017-09-03T07:09:38.044Z,58
2017-09-03T07:10:40.482Z,58
2017-09-03T07:11:42.918Z,57.8
2017-09-03T07:12:45.348Z,57.7
2017-09-03T07:13:47.782Z,57.7
2017-09-03T07:14:50.205Z,57.7
2017-09-03T07:15:52.638Z,57.7
2017-09-03T07:16:55.065Z,57.8
2017-09-03T07:17:57.505Z,57.7
2017-09-03T07:18:59.942Z,57.7
2017-09-03T07:20:02.401Z,57.7
2017-09-03T07:21:04.811Z,57.7
2017-09-03T07:22:07.240Z,57.6
2017-09-03T07:23:09.677Z,57.6
2017-09-03T07:24:12.107Z,57.5
2017-09-03T07:25:14.531Z,57.6
2017-09-03T07:26:16.963Z,57.5
2017-09-03T07:27:19.385Z,57.4
2017-09-03T07:28:21.830Z,57.4
2017-09-03T07:29:24.259Z,57.3
2017-09-03T07:30:26.690Z,57.2
2017-09-03T07:31:29.123Z,57.3
2017-09-03T07:32:31.551Z,57.3
2017-09-03T07:33:33.982Z,57.4
2017-09-03T07:34:36.755Z,57.3
2017-09-03T07:35:39.180Z,57.4
2017-09-03T07:36:41.607Z,57.2
2017-09-03T07:37:44.048Z,57.3
2017-09-03T07:38:46.473Z,57.2
2017-09-03T07:39:48.899Z,57.2
2017-09-03T07:40:51.337Z,57.2
2017-09-03T07:41:53.772Z,57.2
2017-09-03T07:42:56.200Z,57.1
2017-09-03T07:43:58.631Z,57.1
2017-09-03T07:45:01.069Z,57.1
2017-09-03T07:46:03.492Z,57
2017-09-03T07:47:05.924Z,57.1
2017-09-03T07:48:08.356Z,57.1
2017-09-03T07:49:10.785Z,57
2017-09-03T07:50:13.221Z,57
2017-09-03T07:51:15.648Z,57
2017-09-03T07:52:18.069Z,57.1
2017-09-03T07:53:20.544Z,56.9
2017-09-03T07:54:22.976Z,57
2017-09-03T07:55:25.408Z,56.9
2017-09-03T07:56:27.843Z,56.8
2017-09-03T07:57:30.269Z,56.8
2017-09-03T07:58:32.695Z,56.8
2017-09-03T07:59:35.149Z,56.8
2017-09-03T08:00:37.573Z,56.9
2017-09-03T08:01:40.004Z,56.8
2017-09-03T08:02:42.436Z,56.9
2017-09-03T08:03:44.866Z,56.8
2017-09-03T08:04:47.302Z,56.8
2017-09-03T08:05:49.739Z,56.7
2017-09-03T08:06:52.165Z,56.7
2017-09-03T08:07:54.598Z,56.7
2017-09-03T08:08:57.028Z,56.6
2017-09-03T08:09:59.458Z,56.7
2017-09-03T08:11:01.898Z,56.5
2017-09-03T08:12:04.697Z,56.6
2017-09-03T08:13:07.132Z,56.6
2017-09-03T08:14:09.561Z,56.6
2017-09-03T08:15:12.000Z,56.5
2017-09-03T08:16:14.436Z,56.4
2017-09-03T08:17:16.871Z,56.3
2017-09-03T08:18:19.304Z,56.2
2017-09-03T08:19:22.085Z,56.1
2017-09-03T08:20:24.513Z,56
2017-09-03T08:21:26.950Z,56.1
2017-09-03T08:22:29.383Z,56
2017-09-03T08:23:31.822Z,55.8
2017-09-03T08:24:34.255Z,55.8
2017-09-03T08:25:36.686Z,55.8
2017-09-03T08:26:39.115Z,55.6
2017-09-03T08:27:41.545Z,55.7
2017-09-03T08:28:43.979Z,55.7
2017-09-03T08:29:46.421Z,55.7
2017-09-03T08:30:48.850Z,55.7
2017-09-03T08:31:51.292Z,55.6
2017-09-03T08:32:53.721Z,55.5
2017-09-03T08:33:56.157Z,55.6
2017-09-03T08:34:58.592Z,55.6
2017-09-03T08:36:01.023Z,55.7
2017-09-03T08:37:03.459Z,55.6
2017-09-03T08:38:05.901Z,55.7
2017-09-03T08:39:08.348Z,55.8
2017-09-03T08:40:10.789Z,55.8
2017-09-03T08:41:13.220Z,55.8
2017-09-03T08:42:15.657Z,55.8
2017-09-03T08:43:18.085Z,55.9
2017-09-03T08:44:20.867Z,56.2
2017-09-03T08:45:23.302Z,56.3
2017-09-03T08:46:25.735Z,56.4
2017-09-03T08:47:28.175Z,56.4
2017-09-03T08:48:30.618Z,56.4
2017-09-03T08:49:33.058Z,55.5
2017-09-03T08:50:35.506Z,55.6
2017-09-03T08:51:37.925Z,55.4
2017-09-03T08:52:40.368Z,54.7
2017-09-03T08:53:42.808Z,55.1
2017-09-03T08:54:45.248Z,55.6
2017-09-03T08:55:47.684Z,55.8
2017-09-03T08:56:50.122Z,55.9
2017-09-03T08:57:52.557Z,56
2017-09-03T08:58:55.006Z,56.2
2017-09-03T08:59:57.452Z,56.3
2017-09-03T09:00:59.901Z,56.5
2017-09-03T09:02:02.338Z,56.5
2017-09-03T09:03:04.783Z,56.2
2017-09-03T09:04:07.564Z,56.1
2017-09-03T09:05:10.006Z,56
2017-09-03T09:06:12.440Z,55.8
2017-09-03T09:07:14.882Z,55.6
2017-09-03T09:08:17.335Z,55.4
2017-09-03T09:09:19.809Z,55.4
2017-09-03T09:10:22.255Z,55.2
2017-09-03T09:11:24.704Z,55.3
2017-09-03T09:12:27.141Z,55.2
2017-09-03T09:13:29.585Z,55.1
2017-09-03T09:14:32.036Z,55.1
2017-09-03T09:15:34.469Z,54.8
2017-09-03T09:16:36.912Z,54.7
2017-09-03T09:17:39.365Z,54.5
2017-09-03T09:18:42.153Z,54.4
2017-09-03T09:19:44.611Z,54.3
2017-09-03T09:20:47.049Z,54
2017-09-03T09:21:49.493Z,53.8
2017-09-03T09:22:51.953Z,53.6
2017-09-03T09:23:54.403Z,53.4
2017-09-03T09:24:56.848Z,53.1
2017-09-03T09:25:59.299Z,53
2017-09-03T09:27:01.739Z,52.8
2017-09-03T09:28:04.187Z,52.7
2017-09-03T09:29:06.646Z,52.4
2017-09-03T09:30:09.084Z,52.3
2017-09-03T09:31:11.526Z,52.2
2017-09-03T09:32:13.979Z,52.3
2017-09-03T09:33:16.770Z,52
2017-09-03T09:34:19.220Z,51.7
2017-09-03T09:35:21.665Z,51.5
2017-09-03T09:36:24.122Z,51.3
2017-09-03T09:37:26.567Z,50.9
2017-09-03T09:38:29.009Z,50.5
2017-09-03T09:39:31.454Z,50.2
2017-09-03T09:40:33.894Z,50.2
2017-09-03T09:41:36.357Z,50.2
2017-09-03T09:42:38.809Z,50
2017-09-03T09:43:41.258Z,49.9
2017-09-03T09:44:43.709Z,49.6
2017-09-03T09:45:46.157Z,49.5
2017-09-03T09:46:48.605Z,49.2
2017-09-03T09:47:51.055Z,48.9
2017-09-03T09:48:53.506Z,48.8
2017-09-03T09:49:55.953Z,48.8
2017-09-03T09:50:58.406Z,48.7
2017-09-03T09:52:00.853Z,48.7
2017-09-03T09:53:03.293Z,48.8
2017-09-03T09:54:05.745Z,48.6
2017-09-03T09:55:08.195Z,48.2
2017-09-03T09:56:10.653Z,48
2017-09-03T09:57:13.109Z,47.3
2017-09-03T09:58:15.557Z,46.8
2017-09-03T09:59:17.999Z,46.4
2017-09-03T10:00:20.456Z,45.9
2017-09-03T10:01:22.903Z,45.8
2017-09-03T10:02:25.351Z,45.5
2017-09-03T10:03:27.790Z,45.3
2017-09-03T10:04:30.249Z,45.3
2017-09-03T10:05:32.744Z,45.2
2017-09-03T10:06:35.185Z,45.5
2017-09-03T10:07:37.626Z,45.6
2017-09-03T10:08:40.074Z,45.6
2017-09-03T10:09:42.547Z,45.6
2017-09-03T10:10:44.969Z,45.4
2017-09-03T10:11:47.413Z,45.5
2017-09-03T10:12:49.863Z,45.5
2017-09-03T10:13:52.310Z,45.5
2017-09-03T10:14:54.749Z,45.7
2017-09-03T10:15:57.200Z,45.6
2017-09-03T10:16:59.642Z,45.7
2017-09-03T10:18:02.085Z,45.8
2017-09-03T10:19:04.525Z,46
2017-09-03T10:20:06.964Z,46
2017-09-03T10:21:09.405Z,46.2
2017-09-03T10:22:11.849Z,46.3
2017-09-03T10:23:14.300Z,46.4
2017-09-03T10:24:16.749Z,46.6
2017-09-03T10:25:19.184Z,46.6
2017-09-03T10:26:21.627Z,46.5
2017-09-03T10:27:24.080Z,47
2017-09-03T10:28:26.507Z,47.3
2017-09-03T10:29:28.952Z,47.8
2017-09-03T10:30:31.397Z,48.2
2017-09-03T10:31:33.840Z,48.4
2017-09-03T10:32:36.288Z,48.7
2017-09-03T10:33:38.725Z,48.8
2017-09-03T10:34:41.160Z,48.8
2017-09-03T10:35:43.608Z,48.8
2017-09-03T10:36:46.055Z,48.4
2017-09-03T10:37:48.498Z,48
2017-09-03T10:38:50.931Z,48.1
2017-09-03T10:39:53.376Z,48
2017-09-03T10:40:55.832Z,47.7
2017-09-03T10:41:58.267Z,47.5
2017-09-03T10:43:00.712Z,47.4
2017-09-03T10:44:03.155Z,47.1
2017-09-03T10:45:05.595Z,46.5
2017-09-03T10:46:08.046Z,46.3
2017-09-03T10:47:10.488Z,46.1
2017-09-03T10:48:12.923Z,46.4
2017-09-03T10:49:15.373Z,46.6
2017-09-03T10:50:17.809Z,46.8
2017-09-03T10:51:20.259Z,46.8
2017-09-03T10:52:23.045Z,46.7
2017-09-03T10:53:25.478Z,46.6
2017-09-03T10:54:27.920Z,46.4
2017-09-03T10:55:30.379Z,45.8
2017-09-03T10:56:32.822Z,45.5
2017-09-03T10:57:36.386Z,45.1
2017-09-03T10:58:40.973Z,44.9
2017-09-03T10:59:43.442Z,44.8
2017-09-03T11:00:46.131Z,44.7
2017-09-03T11:01:49.164Z,44.7
2017-09-03T11:02:51.618Z,44.7
2017-09-03T11:03:54.076Z,44.6
2017-09-03T11:04:56.526Z,44.9
2017-09-03T11:05:58.989Z,44.8
2017-09-03T11:07:02.171Z,44.8
2017-09-03T11:08:04.772Z,44.9
2017-09-03T11:09:07.220Z,45
2017-09-03T11:10:09.669Z,45
2017-09-03T11:11:12.116Z,45
2017-09-03T11:12:14.578Z,45.2
2017-09-03T11:13:17.017Z,44.8
2017-09-03T11:14:19.805Z,45.2
2017-09-03T11:15:22.238Z,45.8
2017-09-03T11:16:24.681Z,46.2
2017-09-03T11:17:27.131Z,46.4
2017-09-03T11:18:29.590Z,46.6
2017-09-03T11:19:32.024Z,46.8
2017-09-03T11:20:34.473Z,46.4
2017-09-03T11:21:36.929Z,46.4
2017-09-03T11:22:39.719Z,46.2
2017-09-03T11:23:42.165Z,46
2017-09-03T11:24:44.615Z,45.9
2017-09-03T11:25:47.064Z,45.6
2017-09-03T11:26:49.526Z,45.5
2017-09-03T11:27:51.968Z,45.2
2017-09-03T11:28:54.763Z,45
2017-09-03T11:29:57.230Z,44.5
2017-09-03T11:30:59.684Z,44.2
2017-09-03T11:32:02.147Z,43.8
2017-09-03T11:33:04.605Z,43.5
2017-09-03T11:34:07.063Z,43.5
2017-09-03T11:35:09.525Z,43.3
2017-09-03T11:36:11.972Z,43.3
2017-09-03T11:37:14.415Z,43.2
2017-09-03T11:38:16.861Z,43.3
2017-09-03T11:39:19.315Z,43.5
2017-09-03T11:40:21.765Z,43.5
2017-09-03T11:41:24.220Z,43.4
2017-09-03T11:42:26.661Z,43.6
2017-09-03T11:43:29.132Z,43.6
2017-09-03T11:44:31.590Z,43.6
2017-09-03T11:45:34.050Z,43.8
2017-09-03T11:46:36.494Z,43.8
2017-09-03T11:47:38.942Z,43.8
2017-09-03T11:48:41.386Z,44.1
2017-09-03T11:49:43.841Z,44.4
2017-09-03T11:50:46.291Z,44.7
2017-09-03T11:51:48.741Z,44.9
2017-09-03T11:52:51.184Z,44.9
2017-09-03T11:53:53.649Z,44.8
2017-09-03T11:54:56.092Z,44.6
2017-09-03T11:55:58.556Z,44.4
2017-09-03T11:57:01.007Z,44.1
2017-09-03T11:58:03.447Z,44
2017-09-03T11:59:05.896Z,43.9
2017-09-03T12:00:08.344Z,43.7
2017-09-03T12:01:10.787Z,43.6
2017-09-03T12:02:13.236Z,43.3
2017-09-03T12:03:15.689Z,43
2017-09-03T12:04:18.141Z,43
2017-09-03T12:05:20.595Z,42.9
2017-09-03T12:06:23.040Z,42.6
2017-09-03T12:07:25.498Z,42.4
2017-09-03T12:08:27.952Z,42.3
2017-09-03T12:09:30.750Z,42
2017-09-03T12:10:33.206Z,41.9
2017-09-03T12:11:35.659Z,42
2017-09-03T12:12:38.097Z,41.7
2017-09-03T12:13:40.555Z,41.7
2017-09-03T12:14:43.020Z,41.8
2017-09-03T12:15:45.466Z,41.6
2017-09-03T12:16:47.909Z,41.6
2017-09-03T12:17:50.361Z,41.6
2017-09-03T12:18:52.835Z,41.5
2017-09-03T12:19:55.292Z,41.3
2017-09-03T12:20:57.743Z,41.2
2017-09-03T12:22:00.208Z,41.1
2017-09-03T12:23:02.664Z,41.1
2017-09-03T12:24:05.453Z,41.2
2017-09-03T12:25:07.907Z,40.9
2017-09-03T12:26:10.352Z,40.6
2017-09-03T12:27:12.798Z,40.4
2017-09-03T12:28:15.597Z,40.4
2017-09-03T12:29:18.051Z,40.3
2017-09-03T12:30:20.505Z,40.2
2017-09-03T12:31:22.963Z,40.5
2017-09-03T12:32:25.752Z,40.4
2017-09-03T12:33:28.208Z,40.4
2017-09-03T12:34:30.663Z,40.5
2017-09-03T12:35:33.100Z,40.6
2017-09-03T12:36:35.553Z,40.6
2017-09-03T12:37:38.014Z,40.6
2017-09-03T12:38:40.466Z,40.5
2017-09-03T12:39:42.921Z,40.3
2017-09-03T12:40:45.363Z,40.2
2017-09-03T12:41:47.809Z,40.2
2017-09-03T12:42:50.275Z,39.8
2017-09-03T12:43:52.718Z,39.9
2017-09-03T12:44:55.169Z,39.8
2017-09-03T12:45:57.623Z,39.5
2017-09-03T12:47:00.067Z,39.2
2017-09-03T12:48:02.520Z,39.2
2017-09-03T12:49:05.382Z,39.2
2017-09-03T12:50:07.827Z,39.2
2017-09-03T12:51:10.276Z,39.2
2017-09-03T12:52:12.745Z,39.1
2017-09-03T12:53:15.194Z,39.1
2017-09-03T12:54:17.655Z,39.2
2017-09-03T12:55:20.118Z,39
2017-09-03T12:56:22.564Z,38.8
2017-09-03T12:57:25.015Z,38.8
2017-09-03T12:58:27.469Z,38.6
2017-09-03T12:59:29.916Z,38.6
2017-09-03T13:00:32.380Z,38.4
2017-09-03T13:01:34.864Z,38.4
2017-09-03T13:02:37.352Z,38.4
2017-09-03T13:03:39.864Z,38.3
2017-09-03T13:04:42.394Z,38.1
2017-09-03T13:05:44.854Z,38
2017-09-03T13:06:47.292Z,37.9
2017-09-03T13:07:49.763Z,38
2017-09-03T13:08:52.226Z,37.9
2017-09-03T13:09:54.679Z,38.1
2017-09-03T13:10:57.122Z,38.2
2017-09-03T13:11:59.572Z,38.2
2017-09-03T13:13:02.024Z,38.2
2017-09-03T13:14:04.531Z,38.1
2017-09-03T13:15:06.991Z,38.3
2017-09-03T13:16:09.431Z,38.2
2017-09-03T13:17:11.884Z,38.2
2017-09-03T13:18:14.353Z,38.4
2017-09-03T13:19:16.817Z,38.4
2017-09-03T13:20:19.614Z,38.4
2017-09-03T13:21:22.081Z,38.7
2017-09-03T13:22:24.564Z,38.7
2017-09-03T13:23:27.342Z,38.8
2017-09-03T13:24:29.800Z,38.8
2017-09-03T13:25:32.236Z,39
2017-09-03T13:26:34.697Z,39
2017-09-03T13:27:37.138Z,39.2
2017-09-03T13:28:39.592Z,39.2
2017-09-03T13:29:42.046Z,39.4
2017-09-03T13:30:44.545Z,39.5
2017-09-03T13:31:46.990Z,39.6
2017-09-03T13:32:49.450Z,39.6
2017-09-03T13:33:51.896Z,39.9
2017-09-03T13:34:54.337Z,40
2017-09-03T13:35:56.797Z,40
2017-09-03T13:36:59.249Z,40
2017-09-03T13:38:01.709Z,40.2
2017-09-03T13:39:04.501Z,40.2
2017-09-03T13:40:07.298Z,40.3
2017-09-03T13:41:09.762Z,40.4
2017-09-03T13:42:12.236Z,40.7
2017-09-03T13:43:14.687Z,40.9
2017-09-03T13:44:17.148Z,41.2
2017-09-03T13:45:19.601Z,41.4
2017-09-03T13:46:22.049Z,41.4
2017-09-03T13:47:24.510Z,41.5
2017-09-03T13:48:26.952Z,41.3
2017-09-03T13:49:29.405Z,41.2
2017-09-03T13:50:31.876Z,40.9
2017-09-03T13:51:34.306Z,40.7
2017-09-03T13:52:36.743Z,40.5
2017-09-03T13:53:39.188Z,40.4
2017-09-03T13:54:41.645Z,40.5
2017-09-03T13:55:44.100Z,40.4
2017-09-03T13:56:46.539Z,40.4